createdAt,value
2023-04-27T00:01:24.647Z,101971.56
2023-04-27T00:03:54.523Z,101943.19
2023-04-27T00:06:23.239Z,101968.22
2023-04-27T00:08:51.540Z,101962.94
2023-04-27T00:11:19.887Z,101966.63
2023-04-27T00:13:48.297Z,101965.81
2023-04-27T00:16:16.597Z,101989.56
2023-04-27T00:18:44.928Z,101972.84
2023-04-27T00:21:14.659Z,101971.09
2023-04-27T00:23:43.032Z,101954.34
2023-04-27T00:26:11.657Z,101960.56
2023-04-27T00:28:41.377Z,101950.72
2023-04-27T00:31:09.718Z,101959.88
2023-04-27T00:33:38.032Z,101964.28
2023-04-27T00:36:07.627Z,101963.34
2023-04-27T00:38:37.305Z,101959.91
2023-04-27T00:41:08.950Z,101947.28
2023-04-27T00:43:44.649Z,101947.75
2023-04-27T00:46:15.667Z,101956.84
2023-04-27T00:48:44.825Z,101954.03
2023-04-27T00:51:13.210Z,101941.25
2023-04-27T00:53:43.392Z,101952.44
2023-04-27T00:56:12.105Z,101952.13
2023-04-27T00:58:40.408Z,101950.19
2023-04-27T01:01:08.904Z,101952.47
2023-04-27T01:03:38.189Z,101951.06
2023-04-27T01:06:08.509Z,101943.91
2023-04-27T01:08:37.824Z,101937.59
2023-04-27T01:11:07.504Z,101943.91
2023-04-27T01:13:35.810Z,101931.38
2023-04-27T01:16:04.181Z,101929.66
2023-04-27T01:18:33.675Z,101930.34
2023-04-27T01:21:02.258Z,101927.78
2023-04-27T01:23:32.029Z,101925.19
2023-04-27T01:26:00.317Z,101921.81
2023-04-27T01:28:28.648Z,101921.78
2023-04-27T01:30:57.470Z,101922.66
2023-04-27T01:33:27.460Z,101926.38
2023-04-27T01:35:55.848Z,101917.66
2023-04-27T01:38:24.384Z,101916.84
2023-04-27T01:40:55.221Z,101922.84
2023-04-27T01:43:23.564Z,101916.75
2023-04-27T01:45:51.861Z,101913.06
2023-04-27T01:48:20.216Z,101904.28
2023-04-27T01:50:48.496Z,101911.25
2023-04-27T01:53:16.833Z,101882.97
2023-04-27T01:55:45.149Z,101906.28
2023-04-27T01:58:14.991Z,101912.25
2023-04-27T02:00:43.580Z,101906.75
2023-04-27T02:03:11.979Z,101902.88
2023-04-27T02:05:40.355Z,101900.97
2023-04-27T02:08:08.725Z,101888.91
2023-04-27T02:10:37.956Z,101891.44
2023-04-27T02:13:06.382Z,101878.03
2023-04-27T02:15:37.059Z,101861.19
2023-04-27T02:18:05.807Z,101887.47
2023-04-27T02:20:34.543Z,101894.28
2023-04-27T02:23:02.918Z,101890.66
2023-04-27T02:25:31.311Z,101875.59
2023-04-27T02:27:59.566Z,101879.00
2023-04-27T02:30:28.609Z,101881.09
2023-04-27T02:33:01.666Z,101884.53
2023-04-27T02:35:30.060Z,101875.78
2023-04-27T02:38:01.636Z,101885.22
2023-04-27T02:40:29.937Z,101877.56
2023-04-27T02:42:59.040Z,101882.59
2023-04-27T02:45:28.548Z,101883.84
2023-04-27T02:47:56.957Z,101877.84
2023-04-27T02:50:26.564Z,101885.88
2023-04-27T02:52:55.396Z,101880.00
2023-04-27T02:55:23.657Z,101890.81
2023-04-27T02:57:51.983Z,101885.84
2023-04-27T03:00:20.671Z,101878.84
2023-04-27T03:02:49.116Z,101891.31
2023-04-27T03:05:17.613Z,101886.97
2023-04-27T03:07:47.217Z,101891.50
2023-04-27T03:10:15.564Z,101885.63
2023-04-27T03:12:44.694Z,101893.44
2023-04-27T03:15:13.123Z,101896.88
2023-04-27T03:17:41.540Z,101901.00
2023-04-27T03:20:12.234Z,101906.94
2023-04-27T03:22:40.566Z,101904.28
2023-04-27T03:25:10.931Z,101888.63
2023-04-27T03:27:40.480Z,101899.41
2023-04-27T03:30:10.881Z,101896.69
2023-04-27T03:32:39.536Z,101902.28
2023-04-27T03:35:09.789Z,101905.47
2023-04-27T03:37:38.126Z,101901.88
2023-04-27T03:40:10.080Z,101894.81
2023-04-27T03:42:38.388Z,101899.31
2023-04-27T03:45:08.427Z,101899.50
2023-04-27T03:47:36.862Z,101897.69
2023-04-27T03:50:06.060Z,101898.47
2023-04-27T03:52:34.416Z,101894.47
2023-04-27T03:55:02.900Z,101904.34
2023-04-27T03:57:32.597Z,101912.50
2023-04-27T04:00:01.211Z,101899.38
2023-04-27T04:02:29.713Z,101904.91
2023-04-27T04:04:59.170Z,101914.56
2023-04-27T04:07:27.527Z,101920.88
2023-04-27T04:09:55.871Z,101921.66
2023-04-27T04:12:24.753Z,101829.22
2023-04-27T04:14:54.406Z,101929.00
2023-04-27T04:17:22.764Z,101925.69
2023-04-27T04:19:51.087Z,101922.81
2023-04-27T04:22:19.460Z,101923.16
2023-04-27T04:24:47.996Z,101926.88
2023-04-27T04:27:17.301Z,101922.59
2023-04-27T04:29:45.781Z,101930.69
2023-04-27T04:32:17.794Z,101931.91
2023-04-27T04:34:50.701Z,101936.50
2023-04-27T04:37:19.435Z,101922.53
2023-04-27T04:39:47.723Z,101932.31
2023-04-27T04:42:16.058Z,101937.88
2023-04-27T04:44:45.429Z,101916.69
2023-04-27T04:47:15.147Z,101942.66
2023-04-27T04:49:43.513Z,101941.59
2023-04-27T04:52:11.946Z,101941.00
2023-04-27T04:54:40.246Z,101951.53
2023-04-27T04:57:08.637Z,101943.97
2023-04-27T04:59:37.063Z,101949.78
2023-04-27T05:02:05.350Z,101952.97
2023-04-27T05:04:35.255Z,101942.47
2023-04-27T05:07:04.801Z,101953.81
2023-04-27T05:09:33.148Z,101948.31
2023-04-27T05:12:03.298Z,101940.34
2023-04-27T05:14:31.581Z,101949.06
2023-04-27T05:16:59.861Z,101954.34
2023-04-27T05:19:31.045Z,101962.69
2023-04-27T05:22:01.251Z,101976.69
2023-04-27T05:24:29.573Z,101972.91
2023-04-27T05:26:58.350Z,101969.84
2023-04-27T05:29:28.415Z,101972.09
2023-04-27T05:31:57.056Z,101959.13
2023-04-27T05:34:25.583Z,101955.94
2023-04-27T05:36:53.820Z,101958.50
2023-04-27T05:39:23.425Z,101966.28
2023-04-27T05:41:52.248Z,101970.63
2023-04-27T05:44:20.536Z,101958.69
2023-04-27T05:46:48.917Z,101971.03
2023-04-27T05:49:17.202Z,101970.19
2023-04-27T05:51:45.728Z,101969.78
2023-04-27T05:54:14.073Z,101976.84
2023-04-27T05:56:43.811Z,101974.97
2023-04-27T05:59:12.381Z,101978.00
2023-04-27T06:01:40.857Z,101980.19
2023-04-27T06:04:09.483Z,101976.63
2023-04-27T06:06:38.379Z,101982.16
2023-04-27T06:09:07.174Z,101977.84
2023-04-27T06:11:35.702Z,101983.56
2023-04-27T06:14:05.379Z,101988.22
2023-04-27T06:16:34.048Z,101979.53
2023-04-27T06:19:02.965Z,101981.06
2023-04-27T06:21:34.155Z,101981.50
2023-04-27T06:24:02.767Z,101970.25
2023-04-27T06:26:31.195Z,101968.34
2023-04-27T06:28:59.567Z,101972.28
2023-04-27T06:31:29.471Z,101974.72
2023-04-27T06:33:57.848Z,101967.09
2023-04-27T06:36:27.855Z,101965.13
2023-04-27T06:38:56.617Z,101964.00
2023-04-27T06:41:26.019Z,101973.13
2023-04-27T06:43:56.282Z,101976.88
2023-04-27T06:46:27.884Z,101970.53
2023-04-27T06:48:56.330Z,101972.69
2023-04-27T06:51:26.801Z,101977.81
2023-04-27T06:53:57.307Z,101980.38
2023-04-27T06:56:26.173Z,101967.34
2023-04-27T06:58:54.526Z,101976.75
2023-04-27T07:01:22.903Z,101977.03
2023-04-27T07:03:52.758Z,101972.69
2023-04-27T07:06:22.268Z,101975.09
2023-04-27T07:08:50.578Z,101983.88
2023-04-27T07:11:19.048Z,101970.19
2023-04-27T07:13:47.400Z,101978.16
2023-04-27T07:16:16.638Z,101975.06
2023-04-27T07:18:45.517Z,101979.63
2023-04-27T07:21:15.376Z,101950.59
2023-04-27T07:23:43.812Z,101975.75
2023-04-27T07:26:13.012Z,101964.03
2023-04-27T07:28:41.362Z,101965.06
2023-04-27T07:31:09.913Z,101979.94
2023-04-27T07:33:38.553Z,101972.72
2023-04-27T07:36:07.896Z,101948.88
2023-04-27T07:38:38.442Z,101934.81
2023-04-27T07:41:07.459Z,101973.06
2023-04-27T07:43:36.522Z,101975.22
2023-04-27T07:46:05.685Z,101966.78
2023-04-27T07:48:34.096Z,101974.88
2023-04-27T07:51:02.595Z,101973.38
2023-04-27T07:53:31.216Z,101978.00
2023-04-27T07:56:01.040Z,101967.31
2023-04-27T07:58:29.378Z,101979.19
2023-04-27T08:00:57.862Z,101971.72
2023-04-27T08:03:26.368Z,101978.25
2023-04-27T08:05:55.155Z,101968.19
2023-04-27T08:08:24.001Z,101955.88
2023-04-27T08:10:52.333Z,101958.84
2023-04-27T08:13:24.313Z,101961.50
2023-04-27T08:15:58.446Z,101958.59
2023-04-27T08:18:27.219Z,101962.59
2023-04-27T08:20:56.055Z,101965.03
2023-04-27T08:23:24.818Z,101953.41
2023-04-27T08:25:53.156Z,101948.16
2023-04-27T08:28:23.219Z,101962.53
2023-04-27T08:30:51.824Z,101959.16
2023-04-27T08:33:20.345Z,101957.09
2023-04-27T08:35:48.688Z,101970.34
2023-04-27T08:38:16.954Z,101952.53
2023-04-27T08:40:45.535Z,101958.97
2023-04-27T08:43:13.882Z,101955.00
2023-04-27T08:45:50.442Z,101958.91
2023-04-27T08:48:20.279Z,101939.03
2023-04-27T08:50:52.476Z,101948.59
2023-04-27T08:53:22.240Z,101947.88
2023-04-27T08:55:51.397Z,101950.91
2023-04-27T08:58:19.808Z,101951.03
2023-04-27T09:00:52.416Z,101947.78
2023-04-27T09:03:24.486Z,101951.25
2023-04-27T09:06:04.545Z,101933.81
2023-04-27T09:08:45.510Z,101940.09
2023-04-27T09:11:14.246Z,101944.59
2023-04-27T09:13:45.304Z,101915.72
2023-04-27T09:16:15.654Z,101936.00
2023-04-27T09:18:45.429Z,101934.81
2023-04-27T09:21:24.269Z,101946.41
2023-04-27T09:23:53.091Z,101879.09
2023-04-27T09:26:23.817Z,101943.28
2023-04-27T09:28:52.882Z,101914.25
2023-04-27T09:31:22.779Z,101954.91
2023-04-27T09:33:57.273Z,101899.09
2023-04-27T09:36:26.928Z,101868.88
2023-04-27T09:38:55.656Z,101901.78
2023-04-27T09:41:24.249Z,101952.56
2023-04-27T09:43:57.064Z,101950.00
2023-04-27T09:46:30.097Z,101951.31
2023-04-27T09:48:59.572Z,101954.03
2023-04-27T09:51:28.042Z,101937.16
2023-04-27T09:54:01.549Z,101941.31
2023-04-27T09:56:43.678Z,101951.94
2023-04-27T09:59:34.480Z,101934.09
2023-04-27T10:02:13.554Z,101938.56
2023-04-27T10:05:29.019Z,101947.50
2023-04-27T10:07:57.688Z,101945.88
2023-04-27T10:10:26.496Z,101939.72
2023-04-27T10:13:01.836Z,101941.78
2023-04-27T10:15:32.087Z,101943.50
2023-04-27T10:18:07.321Z,101939.78
2023-04-27T10:20:38.695Z,101949.47
2023-04-27T10:23:07.040Z,101943.28
2023-04-27T10:25:41.427Z,101912.97
2023-04-27T10:28:09.936Z,101935.22
2023-04-27T10:30:40.097Z,101932.03
2023-04-27T10:33:12.050Z,101934.88
2023-04-27T10:35:42.318Z,101940.09
2023-04-27T10:38:16.681Z,101919.69
2023-04-27T10:40:47.189Z,101918.97
2023-04-27T10:43:17.491Z,101913.78
2023-04-27T10:45:46.637Z,101919.97
2023-04-27T10:48:16.604Z,101920.00
2023-04-27T10:50:46.805Z,101896.97
2023-04-27T10:53:15.727Z,101881.03
2023-04-27T10:55:44.160Z,101926.34
2023-04-27T10:58:12.674Z,101910.38
2023-04-27T11:00:44.334Z,101915.53
2023-04-27T11:03:18.209Z,101906.75
2023-04-27T11:05:49.077Z,101800.25
2023-04-27T11:08:20.948Z,101878.38
2023-04-27T11:10:51.006Z,101898.75
2023-04-27T11:13:21.427Z,101860.66
2023-04-27T11:15:51.959Z,101912.94
2023-04-27T11:18:23.665Z,101888.06
2023-04-27T11:20:55.975Z,101891.78
2023-04-27T11:23:26.240Z,101897.09
2023-04-27T11:25:55.131Z,101884.59
2023-04-27T11:28:24.570Z,101885.59
2023-04-27T11:30:59.023Z,101877.63
2023-04-27T11:33:29.537Z,101870.53
2023-04-27T11:35:58.244Z,101879.31
2023-04-27T11:38:27.621Z,101893.47
2023-04-27T11:41:05.528Z,101883.72
2023-04-27T11:43:34.876Z,101871.41
2023-04-27T11:46:05.974Z,101886.41
2023-04-27T11:48:38.422Z,101876.63
2023-04-27T11:51:07.841Z,101857.25
2023-04-27T11:53:38.474Z,101875.84
2023-04-27T11:56:11.108Z,101854.50
2023-04-27T11:58:40.936Z,101862.50
2023-04-27T12:01:12.054Z,101873.19
2023-04-27T12:03:42.164Z,101874.06
2023-04-27T12:06:28.071Z,101864.31
2023-04-27T12:08:59.024Z,101853.69
2023-04-27T12:11:28.893Z,101838.59
2023-04-27T12:13:57.524Z,101864.34
2023-04-27T12:16:25.958Z,101859.91
2023-04-27T12:18:55.643Z,101870.53
2023-04-27T12:21:23.976Z,101858.16
2023-04-27T12:23:52.779Z,101858.09
2023-04-27T12:26:21.482Z,101857.19
2023-04-27T12:28:50.042Z,101840.44
2023-04-27T12:31:24.102Z,101848.38
2023-04-27T12:33:55.261Z,101849.25
2023-04-27T12:36:23.670Z,101850.19
2023-04-27T12:38:52.212Z,101851.94
2023-04-27T12:41:20.597Z,101847.50
2023-04-27T12:43:49.029Z,101828.91
2023-04-27T12:46:18.332Z,101826.22
2023-04-27T12:48:47.443Z,101839.53
2023-04-27T12:51:17.127Z,101838.63
2023-04-27T12:53:45.532Z,101827.13
2023-04-27T12:56:13.830Z,101835.09
2023-04-27T12:58:42.141Z,101829.75
2023-04-27T13:01:14.868Z,101822.53
2023-04-27T13:03:43.772Z,101835.91
2023-04-27T13:06:12.427Z,101809.41
2023-04-27T13:08:42.869Z,101750.94
2023-04-27T13:11:11.570Z,101820.94
2023-04-27T13:13:39.948Z,101779.25
2023-04-27T13:16:08.690Z,101817.34
2023-04-27T13:18:37.153Z,101739.41
2023-04-27T13:21:06.713Z,101812.06
2023-04-27T13:23:35.515Z,101818.28
2023-04-27T13:26:06.969Z,101825.34
2023-04-27T13:28:35.414Z,101806.72
2023-04-27T13:31:04.050Z,101794.31
2023-04-27T13:33:40.898Z,101797.03
2023-04-27T13:36:09.832Z,101797.00
2023-04-27T13:38:38.481Z,101782.84
2023-04-27T13:41:08.860Z,101784.63
2023-04-27T13:43:37.354Z,101768.69
2023-04-27T13:46:07.571Z,101766.91
2023-04-27T13:48:36.197Z,101766.84
2023-04-27T13:51:04.651Z,101769.56
2023-04-27T13:53:33.048Z,101758.06
2023-04-27T13:56:01.344Z,101757.19
2023-04-27T13:58:31.223Z,101751.88
2023-04-27T14:00:59.743Z,101750.97
2023-04-27T14:03:28.401Z,101758.03
2023-04-27T14:05:57.147Z,101758.94
2023-04-27T14:08:25.648Z,101766.94
2023-04-27T14:10:54.218Z,101739.50
2023-04-27T14:13:22.817Z,101728.81
2023-04-27T14:15:52.554Z,101706.72
2023-04-27T14:18:20.863Z,101750.06
2023-04-27T14:20:49.312Z,101745.63
2023-04-27T14:23:17.717Z,101731.47
2023-04-27T14:25:46.390Z,101648.28
2023-04-27T14:28:15.482Z,101751.84
2023-04-27T14:30:43.927Z,101742.09
2023-04-27T14:33:13.679Z,101722.56
2023-04-27T14:35:42.155Z,101733.06
2023-04-27T14:38:10.600Z,101729.50
2023-04-27T14:40:38.991Z,101721.41
2023-04-27T14:43:08.088Z,101718.97
2023-04-27T14:45:50.228Z,101681.91
2023-04-27T14:48:23.395Z,101694.28
2023-04-27T14:50:51.639Z,101704.06
2023-04-27T14:53:20.056Z,101702.22
2023-04-27T14:55:48.546Z,101664.19
2023-04-27T14:58:17.235Z,101702.13
2023-04-27T15:00:45.715Z,101706.59
2023-04-27T15:03:14.103Z,101694.28
2023-04-27T15:05:44.041Z,101703.13
2023-04-27T15:08:12.642Z,101711.03
2023-04-27T15:10:41.059Z,101688.78
2023-04-27T15:13:09.518Z,101705.69
2023-04-27T15:15:37.886Z,101689.00
2023-04-27T15:18:06.795Z,101681.88
2023-04-27T15:20:35.262Z,101688.09
2023-04-27T15:23:05.070Z,101691.66
2023-04-27T15:25:33.509Z,101665.97
2023-04-27T15:28:03.299Z,101671.25
2023-04-27T15:30:31.598Z,101664.19
2023-04-27T15:33:02.581Z,101680.13
2023-04-27T15:35:32.436Z,101655.38
2023-04-27T15:38:03.775Z,101663.28
2023-04-27T15:40:34.166Z,101665.00
2023-04-27T15:43:02.886Z,101655.25
2023-04-27T15:45:31.829Z,101636.72
2023-04-27T15:48:00.615Z,101651.63
2023-04-27T15:50:28.968Z,101646.38
2023-04-27T15:52:57.421Z,101641.78
2023-04-27T15:55:25.913Z,101639.22
2023-04-27T15:57:56.147Z,101568.53
2023-04-27T16:00:24.833Z,101650.84
2023-04-27T16:02:53.472Z,101641.13
2023-04-27T16:05:22.135Z,101639.38
2023-04-27T16:07:50.518Z,101630.38
2023-04-27T16:10:18.896Z,101638.53
2023-04-27T16:12:47.464Z,101627.88
2023-04-27T16:15:17.386Z,101621.69
2023-04-27T16:17:45.843Z,101622.59
2023-04-27T16:20:14.384Z,101617.25
2023-04-27T16:22:42.924Z,101606.63
2023-04-27T16:25:12.008Z,101610.22
2023-04-27T16:27:40.883Z,101603.13
2023-04-27T16:30:10.490Z,101585.44
2023-04-27T16:32:40.302Z,101596.03
2023-04-27T16:35:09.601Z,101585.38
2023-04-27T16:37:38.263Z,101609.25
2023-04-27T16:40:08.585Z,101597.81
2023-04-27T16:42:36.986Z,101599.50
2023-04-27T16:45:09.187Z,101581.88
2023-04-27T16:47:41.913Z,101583.59
2023-04-27T16:50:11.749Z,101586.22
2023-04-27T16:52:40.561Z,101582.59
2023-04-27T16:55:09.633Z,101505.78
2023-04-27T16:57:38.182Z,101562.31
2023-04-27T17:00:09.670Z,101549.06
2023-04-27T17:02:39.476Z,101593.28
2023-04-27T17:05:11.954Z,101569.41
2023-04-27T17:07:40.281Z,101574.69
2023-04-27T17:10:09.942Z,101577.28
2023-04-27T17:12:38.363Z,101569.31
2023-04-27T17:15:08.733Z,101575.56
2023-04-27T17:17:37.397Z,101567.63
2023-04-27T17:20:09.256Z,101568.47
2023-04-27T17:22:39.259Z,101573.81
2023-04-27T17:25:09.212Z,101572.94
2023-04-27T17:27:37.525Z,101563.22
2023-04-27T17:30:08.235Z,101573.88
2023-04-27T17:32:36.835Z,101570.34
2023-04-27T17:35:05.635Z,101556.22
2023-04-27T17:37:34.105Z,101551.78
2023-04-27T17:40:04.346Z,101565.06
2023-04-27T17:42:32.660Z,101550.91
2023-04-27T17:45:01.102Z,101555.31
2023-04-27T17:47:29.525Z,101554.44
2023-04-27T17:49:57.976Z,101550.03
2023-04-27T17:52:26.514Z,101542.06
2023-04-27T17:54:55.688Z,101545.63
2023-04-27T17:57:25.409Z,101546.47
2023-04-27T18:00:05.699Z,101550.06
2023-04-27T18:02:39.331Z,101550.91
2023-04-27T18:05:08.728Z,101547.34
2023-04-27T18:07:39.758Z,101543.81
2023-04-27T18:10:10.101Z,101512.94
2023-04-27T18:12:39.866Z,101537.69
2023-04-27T18:15:10.077Z,101538.50
2023-04-27T18:17:38.567Z,101520.81
2023-04-27T18:20:10.103Z,101539.34
2023-04-27T18:22:40.143Z,101522.56
2023-04-27T18:25:10.877Z,101512.84
2023-04-27T18:27:40.744Z,101543.81
2023-04-27T18:30:09.841Z,101535.84
2023-04-27T18:32:38.419Z,101516.41
2023-04-27T18:35:07.830Z,101523.50
2023-04-27T18:37:36.223Z,101529.63
2023-04-27T18:40:05.847Z,101529.66
2023-04-27T18:42:34.268Z,101526.09
2023-04-27T18:45:04.011Z,101511.97
2023-04-27T18:47:32.437Z,101526.09
2023-04-27T18:50:00.778Z,101521.75
2023-04-27T18:52:29.089Z,101519.97
2023-04-27T18:54:57.375Z,101512.88
2023-04-27T18:57:26.520Z,101512.91
2023-04-27T18:59:54.873Z,101504.06
2023-04-27T19:02:25.893Z,101504.91
2023-04-27T19:05:10.905Z,101500.53
2023-04-27T19:07:41.208Z,101502.25
2023-04-27T19:10:11.232Z,101507.56
2023-04-27T19:12:39.677Z,101512.03
2023-04-27T19:15:08.705Z,101502.31
2023-04-27T19:17:38.822Z,101514.66
2023-04-27T19:20:09.242Z,101529.69
2023-04-27T19:22:37.923Z,101489.94
2023-04-27T19:25:07.428Z,101514.69
2023-04-27T19:27:35.837Z,101510.25
2023-04-27T19:30:04.327Z,101506.72
2023-04-27T19:32:34.317Z,101511.16
2023-04-27T19:35:04.756Z,101504.00
2023-04-27T19:37:33.108Z,101504.84
2023-04-27T19:40:01.492Z,101501.34
2023-04-27T19:42:30.586Z,101491.63
2023-04-27T19:44:58.964Z,101501.44
2023-04-27T19:47:27.304Z,101500.56
2023-04-27T19:49:58.379Z,101495.19
2023-04-27T19:52:28.389Z,101496.00
2023-04-27T19:54:57.702Z,101482.75
2023-04-27T19:57:26.100Z,101484.53
2023-04-27T19:59:54.481Z,101493.41
2023-04-27T20:02:23.014Z,101492.56
2023-04-27T20:04:51.937Z,101493.47
2023-04-27T20:07:20.441Z,101492.63
2023-04-27T20:09:50.225Z,101488.25
2023-04-27T20:12:37.389Z,101484.69
2023-04-27T20:15:09.132Z,101475.88
2023-04-27T20:17:37.771Z,101474.97
2023-04-27T20:20:10.436Z,101469.72
2023-04-27T20:22:38.851Z,101476.75
2023-04-27T20:25:09.982Z,101472.34
2023-04-27T20:27:38.393Z,101451.16
2023-04-27T20:30:08.601Z,101442.31
2023-04-27T20:32:39.480Z,101440.53
2023-04-27T20:35:11.146Z,101440.56
2023-04-27T20:37:40.261Z,101439.66
2023-04-27T20:40:14.609Z,101425.53
2023-04-27T20:42:43.584Z,101415.78
2023-04-27T20:45:13.142Z,101413.13
2023-04-27T20:47:42.019Z,101404.31
2023-04-27T20:50:10.797Z,101393.72
2023-04-27T20:52:39.222Z,101394.59
2023-04-27T20:55:09.967Z,101375.16
2023-04-27T20:57:38.259Z,101386.66
2023-04-27T21:00:09.961Z,101366.31
2023-04-27T21:02:38.650Z,101396.34
2023-04-27T21:05:07.207Z,101383.13
2023-04-27T21:07:35.595Z,101378.69
2023-04-27T21:10:06.820Z,101382.25
2023-04-27T21:12:37.029Z,101379.56
2023-04-27T21:15:06.310Z,101368.88
2023-04-27T21:17:34.723Z,101368.00
2023-04-27T21:20:03.389Z,101348.56
2023-04-27T21:22:31.768Z,101347.69
2023-04-27T21:25:00.182Z,101343.31
2023-04-27T21:27:29.856Z,101345.13
2023-04-27T21:29:59.926Z,101349.50
2023-04-27T21:32:28.508Z,101337.19
2023-04-27T21:34:56.819Z,101338.94
2023-04-27T21:37:25.218Z,101349.53
2023-04-27T21:39:53.645Z,101325.72
2023-04-27T21:42:21.988Z,101347.81
2023-04-27T21:44:50.409Z,101347.78
2023-04-27T21:47:20.103Z,101356.63
2023-04-27T21:49:49.355Z,101354.00
2023-04-27T21:52:19.837Z,101351.31
2023-04-27T21:54:48.219Z,101334.56
2023-04-27T21:57:18.733Z,101350.41
2023-04-27T21:59:48.339Z,101347.78
2023-04-27T22:02:17.100Z,101336.31
2023-04-27T22:04:47.809Z,101338.97
2023-04-27T22:07:16.054Z,101331.00
2023-04-27T22:09:44.586Z,101339.84
2023-04-27T22:12:12.975Z,101310.69
2023-04-27T22:14:41.883Z,101308.03
2023-04-27T22:17:12.606Z,101278.91
2023-04-27T22:19:41.563Z,101275.38
2023-04-27T22:22:11.568Z,101270.97
2023-04-27T22:24:39.913Z,101263.03
2023-04-27T22:27:08.272Z,101270.97
2023-04-27T22:29:36.604Z,101263.00
2023-04-27T22:32:05.439Z,101279.78
2023-04-27T22:34:34.126Z,101253.31
2023-04-27T22:37:03.082Z,101232.13
2023-04-27T22:39:33.330Z,101257.72
2023-04-27T22:42:01.677Z,101269.19
2023-04-27T22:44:30.335Z,101261.25
2023-04-27T22:47:00.919Z,101274.53
2023-04-27T22:49:29.666Z,101276.22
2023-04-27T22:51:58.002Z,101277.16
2023-04-27T22:54:26.390Z,101234.81
2023-04-27T22:56:57.316Z,101267.47
2023-04-27T22:59:25.705Z,101272.75
2023-04-27T23:01:54.040Z,101248.94
2023-04-27T23:04:23.235Z,101260.38
2023-04-27T23:06:53.699Z,101263.03
2023-04-27T23:09:22.672Z,101238.34
2023-04-27T23:11:51.212Z,101278.03
2023-04-27T23:14:20.964Z,101270.13
2023-04-27T23:16:49.734Z,101265.69
2023-04-27T23:19:18.191Z,101269.22
2023-04-27T23:21:46.489Z,101260.44
2023-04-27T23:24:14.982Z,101263.94
2023-04-27T23:26:43.460Z,101248.94
2023-04-27T23:29:11.809Z,101250.72
2023-04-27T23:31:41.484Z,101250.72
2023-04-27T23:34:09.803Z,101244.53
2023-04-27T23:36:38.198Z,101231.25
2023-04-27T23:39:06.486Z,101222.44
2023-04-27T23:41:35.004Z,101231.28
2023-04-27T23:44:03.311Z,101218.03
2023-04-27T23:46:31.613Z,101196.00
2023-04-27T23:49:01.462Z,101218.06
2023-04-27T23:51:29.796Z,101204.84
2023-04-27T23:53:58.245Z,101202.19
2023-04-27T23:56:26.752Z,101192.47
2023-04-27T23:58:55.113Z,101194.25
